Portada
METAR-TAF:

METAR-TAF

Aeropuertos :

Istres, Francia

latitud: 43-31N, longitud: 004-56E, altitud: 23 m

Observación

El informe se hizo hace 28 minutos, a las 22:00 UTC
Viento 4 kt del noreste
Temperatura 10°C
Humedad 66%
Presión 1024 hPa
Visibilidad 10 km o más

METAR: LFMI 082200Z AUTO 05004KT 9999 NCD 10/04 Q1024 NOSIG

Hora: 00:28 (22:28 UTC)

Pronóstico

El informe se hizo hace 2 horas y 28 minutos, a las 20:00 UTC
Pronóstico válido del 08 a las 21 UTC al 09 a las 21 UTC
Viento 5 kt del noreste
Visibilidad 10 km o más
sin nubes por debajo de 1500 m y sin presencia de cumulonimbus.
Evolucionando progresivamente
del 09 a las 09 UTC al 09 a las 11 UTC
Viento 12 kt del suroeste
Evolucionando progresivamente
del 09 a las 19 UTC al 09 a las 21 UTC
Viento 3 kt con dirección variable

TAF: LFMI 082000Z 0821/0921 04005KT CAVOK BECMG 0909/0911 22012KT BECMG 0919/0921 VRB03KT

Observaciones y pronósticos meteorológicos de más de 4000 aeropuertos (mensajes METAR y TAF).

Los puntos amarillos y rojos representan las estaciones disponibles.

Ponga el ratón en el punto deseado para ver el nombre de la estación.

Haga clic para ver las observaciones y los pronósticos meteorológicos.

Para cambiar el mapa : haga clic en los botones verdes con una cruz de color negro para hacer un zoom, en el botón verde con un guión para alejar o en las flechas verdes para mapas adyacentes.


METAR-TAF: